createdAt,value
2019-05-02T00:02:28.947Z,6.45
2019-05-02T00:07:36.458Z,6.37
2019-05-02T00:12:42.817Z,6.96
2019-05-02T00:17:49.358Z,7.15
2019-05-02T00:22:55.516Z,7.60
2019-05-02T00:28:01.955Z,8.31
2019-05-02T00:33:10.469Z,8.76
2019-05-02T00:38:17.049Z,9.40
2019-05-02T00:43:23.566Z,10.27
2019-05-02T00:48:30.100Z,10.38
2019-05-02T00:53:36.398Z,10.76
2019-05-02T00:58:42.907Z,11.60
2019-05-02T01:03:52.145Z,12.13
2019-05-02T01:08:50.099Z,12.47
2019-05-02T01:13:57.739Z,14.98
2019-05-02T01:19:04.171Z,15.80
2019-05-02T01:24:10.409Z,17.12
2019-05-02T01:29:16.692Z,16.79
2019-05-02T01:34:23.011Z,16.77
2019-05-02T01:39:29.426Z,17.55
2019-05-02T01:44:36.312Z,18.14
2019-05-02T01:49:44.830Z,18.13
2019-05-02T01:54:51.048Z,18.50
2019-05-02T01:59:57.277Z,19.35
2019-05-02T02:05:03.460Z,19.02
2019-05-02T02:10:09.857Z,19.44
2019-05-02T02:15:16.102Z,20.29
2019-05-02T02:20:22.248Z,20.80
2019-05-02T02:25:32.339Z,20.93
2019-05-02T02:30:32.840Z,20.90
2019-05-02T02:35:49.157Z,22.78
2019-05-02T02:40:45.455Z,22.91
2019-05-02T02:50:53.462Z,23.21
2019-05-02T02:56:01.780Z,23.44
2019-05-02T03:01:00.165Z,25.00
2019-05-02T03:06:08.298Z,25.70
2019-05-02T03:11:22.730Z,26.43
2019-05-02T03:16:19.708Z,26.98
2019-05-02T03:21:26.347Z,27.09
2019-05-02T03:26:32.604Z,27.95
2019-05-02T03:31:39.249Z,28.78
2019-05-02T03:36:45.710Z,28.50
2019-05-02T03:41:55.476Z,29.17
2019-05-02T03:47:02.182Z,30.03
2019-05-02T03:52:02.859Z,29.74
2019-05-02T03:57:02.629Z,30.14
2019-05-02T04:02:13.936Z,30.27
2019-05-02T04:07:15.070Z,29.77
2019-05-02T04:12:21.849Z,29.92
2019-05-02T04:17:34.884Z,29.65
2019-05-02T04:22:33.736Z,28.61
2019-05-02T04:27:39.941Z,29.13
2019-05-02T04:32:49.886Z,28.54
2019-05-02T04:37:52.016Z,28.41
2019-05-02T04:43:02.048Z,26.88
2019-05-02T04:48:04.118Z,27.70
2019-05-02T04:53:10.900Z,25.40
2019-05-02T04:58:24.255Z,24.33
2019-05-02T05:03:23.809Z,24.47
2019-05-02T05:08:31.840Z,23.79
2019-05-02T05:13:38.680Z,24.49
2019-05-02T05:18:49.362Z,24.62
2019-05-02T05:23:51.719Z,24.00
2019-05-02T05:28:53.161Z,24.55
2019-05-02T05:33:59.265Z,25.76
2019-05-02T05:39:08.637Z,24.00
2019-05-02T05:44:08.243Z,23.73
2019-05-02T05:49:18.403Z,23.11
2019-05-02T05:54:18.906Z,22.93
2019-05-02T05:59:28.183Z,23.21
2019-05-02T06:04:32.602Z,23.41
2019-05-02T06:09:31.041Z,23.40
2019-05-02T06:14:38.724Z,21.80
2019-05-02T06:19:48.394Z,21.44
2019-05-02T06:24:52.117Z,20.61
2019-05-02T06:29:58.380Z,19.86
2019-05-02T06:35:05.175Z,19.93
2019-05-02T06:40:11.496Z,19.68
2019-05-02T06:45:18.235Z,19.87
2019-05-02T06:50:25.525Z,19.22
2019-05-02T06:55:36.212Z,19.66
2019-05-02T07:00:48.031Z,20.79
2019-05-02T07:05:41.381Z,20.63
2019-05-02T07:10:47.710Z,20.35
2019-05-02T07:15:54.070Z,20.62
2019-05-02T07:21:00.385Z,21.02
2019-05-02T07:26:06.879Z,20.01
2019-05-02T07:31:13.923Z,21.97
2019-05-02T07:36:20.407Z,22.64
2019-05-02T07:41:29.041Z,20.90
2019-05-02T07:46:36.699Z,19.93
2019-05-02T07:51:42.820Z,19.71
2019-05-02T07:56:53.301Z,21.30
2019-05-02T08:01:50.945Z,23.91
2019-05-02T08:06:57.313Z,23.85
2019-05-02T08:12:03.475Z,25.07
2019-05-02T08:17:16.351Z,26.00
2019-05-02T08:22:14.927Z,25.59
2019-05-02T08:27:23.196Z,25.45
2019-05-02T08:32:30.168Z,25.39
2019-05-02T08:37:41.056Z,25.93
2019-05-02T08:42:39.110Z,27.54
2019-05-02T08:47:45.560Z,25.92
2019-05-02T08:52:51.938Z,31.86
2019-05-02T08:57:58.361Z,25.32
2019-05-02T09:03:04.911Z,24.80
2019-05-02T09:08:14.758Z,25.44
2019-05-02T09:13:20.833Z,24.36
2019-05-02T09:18:19.223Z,24.88
2019-05-02T09:23:27.523Z,25.49
2019-05-02T09:28:28.508Z,24.01
2019-05-02T09:33:36.819Z,21.91
2019-05-02T09:38:37.709Z,23.11
2019-05-02T09:43:43.921Z,23.14
2019-05-02T09:48:51.977Z,23.49
2019-05-02T09:54:02.570Z,22.82
2019-05-02T09:59:22.586Z,24.06
2019-05-02T10:04:11.867Z,24.48
2019-05-02T10:09:22.896Z,22.52
2019-05-02T10:14:22.406Z,21.74
2019-05-02T10:19:29.244Z,19.43
2019-05-02T10:24:35.539Z,22.68
2019-05-02T10:29:42.470Z,23.29
2019-05-02T10:34:53.117Z,22.74
2019-05-02T10:39:53.147Z,25.42
2019-05-02T10:45:02.793Z,22.72
2019-05-02T10:50:09.327Z,22.90
2019-05-02T10:55:15.713Z,22.50
2019-05-02T11:00:22.127Z,73.53
2019-05-02T11:05:28.628Z,21.81
2019-05-02T11:10:35.260Z,23.90
2019-05-02T11:15:42.482Z,24.56
2019-05-02T11:20:49.081Z,22.58
2019-05-02T11:25:55.440Z,22.85
2019-05-02T11:31:06.318Z,21.91
2019-05-02T11:36:03.274Z,22.22
2019-05-02T11:41:11.855Z,22.78
2019-05-02T11:46:18.320Z,21.27
2019-05-02T11:51:24.798Z,21.89
2019-05-02T11:56:32.807Z,20.14
2019-05-02T12:01:42.618Z,21.13
2019-05-02T12:06:50.097Z,22.29
2019-05-02T12:11:56.663Z,21.42
2019-05-02T12:17:03.135Z,20.68
2019-05-02T12:22:12.903Z,20.95
2019-05-02T12:27:13.440Z,21.63
2019-05-02T12:32:19.799Z,21.95
2019-05-02T12:37:26.800Z,22.01
2019-05-02T12:42:34.427Z,23.80
2019-05-02T12:47:42.787Z,24.68
2019-05-02T12:52:49.813Z,24.61
2019-05-02T12:57:55.884Z,25.14
2019-05-02T13:03:02.360Z,22.39
2019-05-02T13:08:08.692Z,21.78
2019-05-02T13:13:16.288Z,20.73
2019-05-02T13:18:26.924Z,19.87
2019-05-02T13:23:27.381Z,20.23
2019-05-02T13:28:28.608Z,19.98
2019-05-02T13:33:35.925Z,17.48
2019-05-02T13:38:42.389Z,16.37
2019-05-02T13:43:48.861Z,15.64
2019-05-02T13:48:55.214Z,14.85
2019-05-02T13:54:02.284Z,13.33
2019-05-02T13:59:10.503Z,11.76
2019-05-02T14:04:18.967Z,12.32
2019-05-02T14:09:25.199Z,11.19
2019-05-02T14:14:32.567Z,10.77
2019-05-02T14:19:39.485Z,10.79
2019-05-02T14:24:45.777Z,11.21
2019-05-02T14:29:52.588Z,11.16
2019-05-02T14:34:59.553Z,11.17
2019-05-02T14:40:07.305Z,10.80
2019-05-02T14:45:27.434Z,9.92
2019-05-02T14:50:24.234Z,9.73
2019-05-02T14:55:25.673Z,9.57
2019-05-02T15:00:39.530Z,8.98
2019-05-02T15:05:37.704Z,9.79
2019-05-02T15:10:52.753Z,9.55
2019-05-02T15:15:52.902Z,8.26
2019-05-02T15:21:03.902Z,7.93
2019-05-02T15:26:07.030Z,7.54
2019-05-02T15:31:13.290Z,8.47
2019-05-02T15:36:19.732Z,8.63
2019-05-02T15:41:26.882Z,10.28
2019-05-02T15:46:33.151Z,10.16
2019-05-02T15:51:43.697Z,7.60
2019-05-02T15:56:42.733Z,7.47
2019-05-02T16:01:49.538Z,7.87
2019-05-02T16:07:00.388Z,10.31
2019-05-02T16:12:02.927Z,8.09
2019-05-02T16:17:12.244Z,5.74
2019-05-02T16:22:19.003Z,4.39
2019-05-02T16:27:29.052Z,3.03
2019-05-02T16:32:25.420Z,3.82
2019-05-02T16:37:32.495Z,3.76
2019-05-02T16:42:41.653Z,3.00
2019-05-02T16:47:49.654Z,2.98
2019-05-02T16:52:54.396Z,2.69
2019-05-02T16:58:05.241Z,3.33
2019-05-02T17:03:03.870Z,3.93
2019-05-02T17:08:18.703Z,4.19
2019-05-02T17:13:16.652Z,4.23
2019-05-02T17:18:23.007Z,5.55
2019-05-02T17:23:29.504Z,4.87
2019-05-02T17:28:38.019Z,4.53
2019-05-02T17:33:38.440Z,4.39
2019-05-02T17:38:44.874Z,4.89
2019-05-02T17:43:51.092Z,4.97
2019-05-02T17:48:57.540Z,5.20
2019-05-02T17:54:03.859Z,5.37
2019-05-02T17:59:11.791Z,5.83
2019-05-02T18:04:18.100Z,6.59
2019-05-02T18:09:26.407Z,6.62
2019-05-02T18:14:27.383Z,6.98
2019-05-02T18:19:33.791Z,5.99
2019-05-02T18:24:42.782Z,5.94
2019-05-02T18:29:45.400Z,6.32
2019-05-02T18:34:52.123Z,6.42
2019-05-02T18:39:58.367Z,5.85
2019-05-02T18:45:04.460Z,5.85
2019-05-02T18:50:11.055Z,5.64
2019-05-02T18:55:24.477Z,5.83
2019-05-02T19:00:22.920Z,6.68
2019-05-02T19:05:29.684Z,6.18
2019-05-02T19:10:37.069Z,7.53
2019-05-02T19:15:39.601Z,6.09
2019-05-02T19:20:51.284Z,5.90
2019-05-02T19:25:50.137Z,6.88
2019-05-02T19:31:01.860Z,5.93
2019-05-02T19:35:59.708Z,5.43
2019-05-02T19:41:09.209Z,5.75
2019-05-02T19:46:17.004Z,5.38
2019-05-02T19:51:23.407Z,5.51
2019-05-02T19:56:33.423Z,5.84
2019-05-02T20:01:37.260Z,5.12
2019-05-02T20:06:44.286Z,4.95
2019-05-02T20:11:52.068Z,5.06
2019-05-02T20:16:59.523Z,4.69
2019-05-02T20:22:06.716Z,4.85
2019-05-02T20:27:14.596Z,4.61
2019-05-02T20:32:22.071Z,4.53
2019-05-02T20:37:29.024Z,4.73
2019-05-02T20:42:35.236Z,4.51
2019-05-02T20:47:42.754Z,4.85
2019-05-02T20:52:49.503Z,4.57
2019-05-02T20:57:56.217Z,3.85
2019-05-02T21:03:02.743Z,4.62
2019-05-02T21:08:09.233Z,4.29
2019-05-02T21:13:15.343Z,4.55
2019-05-02T21:18:22.089Z,4.14
2019-05-02T21:23:40.657Z,4.31
2019-05-02T21:28:34.685Z,4.33
2019-05-02T21:33:42.711Z,4.06
2019-05-02T21:38:49.194Z,4.07
2019-05-02T21:43:55.570Z,4.58
2019-05-02T21:49:03.951Z,4.22
2019-05-02T21:54:12.196Z,4.04
2019-05-02T21:59:18.723Z,4.69
2019-05-02T22:04:25.008Z,3.87
2019-05-02T22:09:32.316Z,4.52
2019-05-02T22:14:38.887Z,4.30
2019-05-02T22:19:45.200Z,4.34
2019-05-02T22:24:52.832Z,4.37
2019-05-02T22:29:59.372Z,4.21
2019-05-02T22:35:05.744Z,4.14
2019-05-02T22:40:13.522Z,4.28
2019-05-02T22:45:21.727Z,4.11
2019-05-02T22:50:29.035Z,4.31
2019-05-02T22:55:35.208Z,4.04
2019-05-02T23:00:41.682Z,4.18
2019-05-02T23:05:48.145Z,3.82
2019-05-02T23:10:54.184Z,4.44
2019-05-02T23:16:00.520Z,3.98
2019-05-02T23:21:06.924Z,4.10
2019-05-02T23:26:13.204Z,4.18
2019-05-02T23:31:19.526Z,4.29
2019-05-02T23:36:25.897Z,4.19
2019-05-02T23:41:32.898Z,4.54
2019-05-02T23:46:39.709Z,4.33
2019-05-02T23:51:45.891Z,5.21
2019-05-02T23:56:52.335Z,4.54
